sensor_id;sensor_type;location;lat;lon;timestamp;temperature;humidity
29551;DHT22;16488;52.396;10.696;2023-04-03T00:02:02;0.90;99.90
29551;DHT22;16488;52.396;10.696;2023-04-03T00:04:27;0.90;99.90
29551;DHT22;16488;52.396;10.696;2023-04-03T00:06:53;0.90;99.90
29551;DHT22;16488;52.396;10.696;2023-04-03T00:09:18;0.90;99.90
29551;DHT22;16488;52.396;10.696;2023-04-03T00:11:45;0.80;99.90
29551;DHT22;16488;52.396;10.696;2023-04-03T00:14:10;0.80;99.90
29551;DHT22;16488;52.396;10.696;2023-04-03T00:16:36;0.80;99.90
29551;DHT22;16488;52.396;10.696;2023-04-03T00:19:01;0.80;99.90
29551;DHT22;16488;52.396;10.696;2023-04-03T00:21:27;0.80;99.90
29551;DHT22;16488;52.396;10.696;2023-04-03T00:23:52;0.90;99.90
29551;DHT22;16488;52.396;10.696;2023-04-03T00:26:18;0.80;99.90
29551;DHT22;16488;52.396;10.696;2023-04-03T00:28:43;0.70;99.90
29551;DHT22;16488;52.396;10.696;2023-04-03T00:31:09;0.70;99.90
29551;DHT22;16488;52.396;10.696;2023-04-03T00:33:34;0.70;99.90
29551;DHT22;16488;52.396;10.696;2023-04-03T00:36:04;0.70;99.90
29551;DHT22;16488;52.396;10.696;2023-04-03T00:38:31;0.70;99.90
29551;DHT22;16488;52.396;10.696;2023-04-03T00:40:56;0.70;99.90
29551;DHT22;16488;52.396;10.696;2023-04-03T00:43:23;0.70;99.90
29551;DHT22;16488;52.396;10.696;2023-04-03T00:45:50;0.70;99.90
29551;DHT22;16488;52.396;10.696;2023-04-03T00:48:21;0.60;99.90
29551;DHT22;16488;52.396;10.696;2023-04-03T00:50:48;0.60;99.90
29551;DHT22;16488;52.396;10.696;2023-04-03T00:53:15;0.60;99.90
29551;DHT22;16488;52.396;10.696;2023-04-03T00:55:41;0.60;99.90
29551;DHT22;16488;52.396;10.696;2023-04-03T00:58:08;0.60;99.90
29551;DHT22;16488;52.396;10.696;2023-04-03T01:00:33;0.60;99.90
29551;DHT22;16488;52.396;10.696;2023-04-03T01:03:01;0.60;99.90
29551;DHT22;16488;52.396;10.696;2023-04-03T01:05:26;0.60;99.90
29551;DHT22;16488;52.396;10.696;2023-04-03T01:07:52;0.60;99.90
29551;DHT22;16488;52.396;10.696;2023-04-03T01:10:18;0.60;99.90
29551;DHT22;16488;52.396;10.696;2023-04-03T01:12:47;0.60;99.90
29551;DHT22;16488;52.396;10.696;2023-04-03T01:15:18;0.50;99.90
29551;DHT22;16488;52.396;10.696;2023-04-03T01:17:53;0.50;99.90
29551;DHT22;16488;52.396;10.696;2023-04-03T01:22:48;0.50;99.90
29551;DHT22;16488;52.396;10.696;2023-04-03T01:25:18;0.50;99.90
29551;DHT22;16488;52.396;10.696;2023-04-03T01:27:43;0.50;99.90
29551;DHT22;16488;52.396;10.696;2023-04-03T01:30:09;0.40;99.90
29551;DHT22;16488;52.396;10.696;2023-04-03T01:32:35;0.40;99.90
29551;DHT22;16488;52.396;10.696;2023-04-03T01:35:00;0.30;99.90
29551;DHT22;16488;52.396;10.696;2023-04-03T01:37:25;0.30;99.90
29551;DHT22;16488;52.396;10.696;2023-04-03T01:39:51;0.20;99.90
29551;DHT22;16488;52.396;10.696;2023-04-03T01:42:16;0.10;99.90
29551;DHT22;16488;52.396;10.696;2023-04-03T01:44:42;0.10;99.90
29551;DHT22;16488;52.396;10.696;2023-04-03T01:47:08;0.00;99.90
29551;DHT22;16488;52.396;10.696;2023-04-03T01:49:33;-0.10;99.90
29551;DHT22;16488;52.396;10.696;2023-04-03T01:51:59;-0.10;99.90
29551;DHT22;16488;52.396;10.696;2023-04-03T01:54:24;-0.10;99.90
29551;DHT22;16488;52.396;10.696;2023-04-03T01:56:50;-0.10;99.90
29551;DHT22;16488;52.396;10.696;2023-04-03T01:59:15;-0.10;99.90
29551;DHT22;16488;52.396;10.696;2023-04-03T02:01:43;-0.10;99.90
29551;DHT22;16488;52.396;10.696;2023-04-03T02:04:10;-0.10;99.90
29551;DHT22;16488;52.396;10.696;2023-04-03T02:06:36;-0.10;99.90
29551;DHT22;16488;52.396;10.696;2023-04-03T02:09:01;-0.10;99.90
29551;DHT22;16488;52.396;10.696;2023-04-03T02:11:27;-0.10;99.90
29551;DHT22;16488;52.396;10.696;2023-04-03T02:13:53;-0.20;99.90
29551;DHT22;16488;52.396;10.696;2023-04-03T02:16:18;-0.20;99.90
29551;DHT22;16488;52.396;10.696;2023-04-03T02:18:44;-0.20;99.90
29551;DHT22;16488;52.396;10.696;2023-04-03T02:21:09;-0.20;99.90
29551;DHT22;16488;52.396;10.696;2023-04-03T02:23:35;-0.20;99.90
29551;DHT22;16488;52.396;10.696;2023-04-03T02:28:31;-0.20;99.90
29551;DHT22;16488;52.396;10.696;2023-04-03T02:30:56;-0.10;99.90
29551;DHT22;16488;52.396;10.696;2023-04-03T02:33:22;-0.10;99.90
29551;DHT22;16488;52.396;10.696;2023-04-03T02:35:51;-0.10;99.90
29551;DHT22;16488;52.396;10.696;2023-04-03T02:38:18;-0.10;99.90
29551;DHT22;16488;52.396;10.696;2023-04-03T02:40:43;-0.10;99.90
29551;DHT22;16488;52.396;10.696;2023-04-03T02:43:10;-0.10;99.90
29551;DHT22;16488;52.396;10.696;2023-04-03T02:45:35;0.00;99.90
29551;DHT22;16488;52.396;10.696;2023-04-03T02:48:01;0.00;99.90
29551;DHT22;16488;52.396;10.696;2023-04-03T02:50:26;0.00;99.90
29551;DHT22;16488;52.396;10.696;2023-04-03T02:52:52;0.00;99.90
29551;DHT22;16488;52.396;10.696;2023-04-03T02:55:17;0.00;99.90
29551;DHT22;16488;52.396;10.696;2023-04-03T02:57:43;-0.10;99.90
29551;DHT22;16488;52.396;10.696;2023-04-03T03:00:08;0.00;99.90
29551;DHT22;16488;52.396;10.696;2023-04-03T03:02:35;-0.10;99.90
29551;DHT22;16488;52.396;10.696;2023-04-03T03:05:00;0.00;99.90
29551;DHT22;16488;52.396;10.696;2023-04-03T03:07:26;-0.10;99.90
29551;DHT22;16488;52.396;10.696;2023-04-03T03:09:51;-0.10;99.90
29551;DHT22;16488;52.396;10.696;2023-04-03T03:12:17;-0.10;99.90
29551;DHT22;16488;52.396;10.696;2023-04-03T03:14:47;-0.10;99.90
29551;DHT22;16488;52.396;10.696;2023-04-03T03:17:13;-0.10;99.90
29551;DHT22;16488;52.396;10.696;2023-04-03T03:19:38;-0.10;99.90
29551;DHT22;16488;52.396;10.696;2023-04-03T03:22:04;-0.10;99.90
29551;DHT22;16488;52.396;10.696;2023-04-03T03:24:29;-0.10;99.90
29551;DHT22;16488;52.396;10.696;2023-04-03T03:26:55;-0.10;99.90
29551;DHT22;16488;52.396;10.696;2023-04-03T03:29:21;-0.10;99.90
29551;DHT22;16488;52.396;10.696;2023-04-03T03:31:46;-0.20;99.90
29551;DHT22;16488;52.396;10.696;2023-04-03T03:34:12;-0.20;99.90
29551;DHT22;16488;52.396;10.696;2023-04-03T03:36:38;-0.10;99.90
29551;DHT22;16488;52.396;10.696;2023-04-03T03:39:03;-0.20;99.90
29551;DHT22;16488;52.396;10.696;2023-04-03T03:41:29;-0.20;99.90
29551;DHT22;16488;52.396;10.696;2023-04-03T03:43:54;-0.20;99.90
29551;DHT22;16488;52.396;10.696;2023-04-03T03:46:20;-0.20;99.90
29551;DHT22;16488;52.396;10.696;2023-04-03T03:48:46;-0.20;99.90
29551;DHT22;16488;52.396;10.696;2023-04-03T03:51:11;-0.20;99.90
29551;DHT22;16488;52.396;10.696;2023-04-03T03:53:37;-0.20;99.90
29551;DHT22;16488;52.396;10.696;2023-04-03T03:56:03;-0.20;99.90
29551;DHT22;16488;52.396;10.696;2023-04-03T03:58:28;-0.20;99.90
29551;DHT22;16488;52.396;10.696;2023-04-03T04:00:54;-0.20;99.90
29551;DHT22;16488;52.396;10.696;2023-04-03T04:03:19;-0.30;99.90
29551;DHT22;16488;52.396;10.696;2023-04-03T04:05:46;-0.30;99.90
29551;DHT22;16488;52.396;10.696;2023-04-03T04:08:11;-0.30;99.90
29551;DHT22;16488;52.396;10.696;2023-04-03T04:10:37;-0.30;99.90
29551;DHT22;16488;52.396;10.696;2023-04-03T04:13:03;-0.40;99.90
29551;DHT22;16488;52.396;10.696;2023-04-03T04:15:28;-0.40;99.90
29551;DHT22;16488;52.396;10.696;2023-04-03T04:17:54;-0.40;99.90
29551;DHT22;16488;52.396;10.696;2023-04-03T04:20:20;-0.40;99.90
29551;DHT22;16488;52.396;10.696;2023-04-03T04:22:45;-0.40;99.90
29551;DHT22;16488;52.396;10.696;2023-04-03T04:25:11;-0.40;99.90
29551;DHT22;16488;52.396;10.696;2023-04-03T04:27:36;-0.40;99.90
29551;DHT22;16488;52.396;10.696;2023-04-03T04:30:02;-0.50;99.90
29551;DHT22;16488;52.396;10.696;2023-04-03T04:32:28;-0.50;99.90
29551;DHT22;16488;52.396;10.696;2023-04-03T04:34:54;-0.50;99.90
29551;DHT22;16488;52.396;10.696;2023-04-03T04:37:20;-0.60;99.90
29551;DHT22;16488;52.396;10.696;2023-04-03T04:39:45;-0.60;99.90
29551;DHT22;16488;52.396;10.696;2023-04-03T04:42:10;-0.60;99.90
29551;DHT22;16488;52.396;10.696;2023-04-03T04:44:40;-0.60;99.90
29551;DHT22;16488;52.396;10.696;2023-04-03T04:47:06;-0.60;99.90
29551;DHT22;16488;52.396;10.696;2023-04-03T04:49:31;-0.60;99.90
29551;DHT22;16488;52.396;10.696;2023-04-03T04:51:57;-0.60;99.90
29551;DHT22;16488;52.396;10.696;2023-04-03T04:54:22;-0.70;99.90
29551;DHT22;16488;52.396;10.696;2023-04-03T04:56:48;-0.60;99.90
29551;DHT22;16488;52.396;10.696;2023-04-03T04:59:13;-0.60;99.90
29551;DHT22;16488;52.396;10.696;2023-04-03T05:01:39;-0.60;99.90
29551;DHT22;16488;52.396;10.696;2023-04-03T05:04:05;-0.60;99.90
29551;DHT22;16488;52.396;10.696;2023-04-03T05:06:31;-0.60;99.90
29551;DHT22;16488;52.396;10.696;2023-04-03T05:08:57;-0.60;99.90
29551;DHT22;16488;52.396;10.696;2023-04-03T05:11:23;-0.60;99.90
29551;DHT22;16488;52.396;10.696;2023-04-03T05:13:48;-0.60;99.90
29551;DHT22;16488;52.396;10.696;2023-04-03T05:16:14;-0.60;99.90
29551;DHT22;16488;52.396;10.696;2023-04-03T05:18:39;-0.50;99.90
29551;DHT22;16488;52.396;10.696;2023-04-03T05:21:05;-0.60;99.90
29551;DHT22;16488;52.396;10.696;2023-04-03T05:23:30;-0.60;99.90
29551;DHT22;16488;52.396;10.696;2023-04-03T05:25:56;-0.60;99.90
29551;DHT22;16488;52.396;10.696;2023-04-03T05:28:21;-0.50;99.90
29551;DHT22;16488;52.396;10.696;2023-04-03T05:30:52;-0.50;99.90
29551;DHT22;16488;52.396;10.696;2023-04-03T05:33:18;-0.50;99.90
29551;DHT22;16488;52.396;10.696;2023-04-03T05:35:43;-0.40;99.90
29551;DHT22;16488;52.396;10.696;2023-04-03T05:38:09;-0.40;99.90
29551;DHT22;16488;52.396;10.696;2023-04-03T05:40:34;-0.30;99.90
29551;DHT22;16488;52.396;10.696;2023-04-03T05:43:00;-0.30;99.90
29551;DHT22;16488;52.396;10.696;2023-04-03T05:45:25;-0.30;99.90
29551;DHT22;16488;52.396;10.696;2023-04-03T05:47:51;-0.30;99.90
29551;DHT22;16488;52.396;10.696;2023-04-03T05:50:16;-0.20;99.90
29551;DHT22;16488;52.396;10.696;2023-04-03T05:52:43;-0.20;99.90
29551;DHT22;16488;52.396;10.696;2023-04-03T05:55:09;-0.10;99.90
29551;DHT22;16488;52.396;10.696;2023-04-03T05:57:34;-0.10;99.90
29551;DHT22;16488;52.396;10.696;2023-04-03T06:00:00;-0.10;99.90
29551;DHT22;16488;52.396;10.696;2023-04-03T06:02:25;0.00;99.90
29551;DHT22;16488;52.396;10.696;2023-04-03T06:04:52;0.00;99.90
29551;DHT22;16488;52.396;10.696;2023-04-03T06:07:18;0.10;99.90
29551;DHT22;16488;52.396;10.696;2023-04-03T06:09:47;0.10;99.90
29551;DHT22;16488;52.396;10.696;2023-04-03T06:12:12;0.20;99.90
29551;DHT22;16488;52.396;10.696;2023-04-03T06:14:38;0.20;99.90
29551;DHT22;16488;52.396;10.696;2023-04-03T06:17:04;0.30;99.90
29551;DHT22;16488;52.396;10.696;2023-04-03T06:19:30;0.30;99.90
29551;DHT22;16488;52.396;10.696;2023-04-03T06:21:56;0.30;99.90
29551;DHT22;16488;52.396;10.696;2023-04-03T06:24:21;0.30;99.90
29551;DHT22;16488;52.396;10.696;2023-04-03T06:26:49;0.30;99.90
29551;DHT22;16488;52.396;10.696;2023-04-03T06:29:16;0.40;99.90
29551;DHT22;16488;52.396;10.696;2023-04-03T06:31:42;0.40;99.90
29551;DHT22;16488;52.396;10.696;2023-04-03T06:34:07;0.40;99.90
29551;DHT22;16488;52.396;10.696;2023-04-03T06:36:33;0.50;99.90
29551;DHT22;16488;52.396;10.696;2023-04-03T06:38:59;0.60;99.90
29551;DHT22;16488;52.396;10.696;2023-04-03T06:41:25;0.70;99.90
29551;DHT22;16488;52.396;10.696;2023-04-03T06:43:51;0.80;99.90
29551;DHT22;16488;52.396;10.696;2023-04-03T06:46:17;0.80;99.90
29551;DHT22;16488;52.396;10.696;2023-04-03T06:48:44;0.90;99.90
29551;DHT22;16488;52.396;10.696;2023-04-03T06:51:13;1.00;99.90
29551;DHT22;16488;52.396;10.696;2023-04-03T06:53:40;1.00;99.90
29551;DHT22;16488;52.396;10.696;2023-04-03T06:56:07;1.00;99.90
29551;DHT22;16488;52.396;10.696;2023-04-03T06:58:33;1.10;99.90
29551;DHT22;16488;52.396;10.696;2023-04-03T07:00:58;1.20;99.90
29551;DHT22;16488;52.396;10.696;2023-04-03T07:03:24;1.30;99.90
29551;DHT22;16488;52.396;10.696;2023-04-03T07:05:49;1.30;99.90
29551;DHT22;16488;52.396;10.696;2023-04-03T07:08:14;1.40;99.90
29551;DHT22;16488;52.396;10.696;2023-04-03T07:10:40;1.50;99.90
29551;DHT22;16488;52.396;10.696;2023-04-03T07:13:06;1.50;99.90
29551;DHT22;16488;52.396;10.696;2023-04-03T07:15:31;1.60;99.90
29551;DHT22;16488;52.396;10.696;2023-04-03T07:17:57;1.80;99.90
29551;DHT22;16488;52.396;10.696;2023-04-03T07:20:22;1.90;99.90
29551;DHT22;16488;52.396;10.696;2023-04-03T07:22:48;2.00;99.90
29551;DHT22;16488;52.396;10.696;2023-04-03T07:25:13;2.10;99.90
29551;DHT22;16488;52.396;10.696;2023-04-03T07:27:39;2.10;99.90
29551;DHT22;16488;52.396;10.696;2023-04-03T07:30:04;2.20;99.90
29551;DHT22;16488;52.396;10.696;2023-04-03T07:32:31;2.30;99.90
29551;DHT22;16488;52.396;10.696;2023-04-03T07:34:58;2.40;99.90
29551;DHT22;16488;52.396;10.696;2023-04-03T07:37:23;2.60;99.90
29551;DHT22;16488;52.396;10.696;2023-04-03T07:39:49;2.60;99.90
29551;DHT22;16488;52.396;10.696;2023-04-03T07:42:14;2.70;99.90
29551;DHT22;16488;52.396;10.696;2023-04-03T07:44:40;2.80;99.90
29551;DHT22;16488;52.396;10.696;2023-04-03T07:47:06;2.90;99.90
29551;DHT22;16488;52.396;10.696;2023-04-03T07:49:31;3.10;99.90
29551;DHT22;16488;52.396;10.696;2023-04-03T07:51:58;3.10;99.90
29551;DHT22;16488;52.396;10.696;2023-04-03T07:54:23;3.20;99.90
29551;DHT22;16488;52.396;10.696;2023-04-03T07:56:49;3.20;99.90
29551;DHT22;16488;52.396;10.696;2023-04-03T07:59:15;3.30;99.90
29551;DHT22;16488;52.396;10.696;2023-04-03T08:01:40;3.40;99.90
29551;DHT22;16488;52.396;10.696;2023-04-03T08:04:06;3.60;99.90
29551;DHT22;16488;52.396;10.696;2023-04-03T08:06:32;3.60;99.90
29551;DHT22;16488;52.396;10.696;2023-04-03T08:09:00;3.70;99.90
29551;DHT22;16488;52.396;10.696;2023-04-03T08:11:25;3.70;99.90
29551;DHT22;16488;52.396;10.696;2023-04-03T08:13:52;3.60;99.90
29551;DHT22;16488;52.396;10.696;2023-04-03T08:16:18;3.70;99.90
29551;DHT22;16488;52.396;10.696;2023-04-03T08:18:45;3.80;99.90
29551;DHT22;16488;52.396;10.696;2023-04-03T08:21:11;3.80;99.90
29551;DHT22;16488;52.396;10.696;2023-04-03T08:23:37;3.90;99.90
29551;DHT22;16488;52.396;10.696;2023-04-03T08:26:07;4.10;99.90
29551;DHT22;16488;52.396;10.696;2023-04-03T08:28:32;4.10;99.90
29551;DHT22;16488;52.396;10.696;2023-04-03T08:31:01;4.10;99.90
29551;DHT22;16488;52.396;10.696;2023-04-03T08:33:27;4.10;99.90
29551;DHT22;16488;52.396;10.696;2023-04-03T08:35:53;4.10;99.90
29551;DHT22;16488;52.396;10.696;2023-04-03T08:38:18;4.20;99.90
29551;DHT22;16488;52.396;10.696;2023-04-03T08:40:45;4.30;99.90
29551;DHT22;16488;52.396;10.696;2023-04-03T08:43:20;4.30;99.90
29551;DHT22;16488;52.396;10.696;2023-04-03T08:45:53;4.40;99.90
29551;DHT22;16488;52.396;10.696;2023-04-03T08:48:31;4.40;99.90
29551;DHT22;16488;52.396;10.696;2023-04-03T08:50:59;4.40;99.90
29551;DHT22;16488;52.396;10.696;2023-04-03T08:53:26;4.60;99.90
29551;DHT22;16488;52.396;10.696;2023-04-03T08:55:55;4.70;99.90
29551;DHT22;16488;52.396;10.696;2023-04-03T08:58:28;4.70;99.90
29551;DHT22;16488;52.396;10.696;2023-04-03T09:00:58;4.80;99.90
29551;DHT22;16488;52.396;10.696;2023-04-03T09:03:30;4.80;99.90
29551;DHT22;16488;52.396;10.696;2023-04-03T09:06:03;4.90;99.90
29551;DHT22;16488;52.396;10.696;2023-04-03T09:11:07;4.90;99.90
29551;DHT22;16488;52.396;10.696;2023-04-03T09:16:02;5.30;99.40
29551;DHT22;16488;52.396;10.696;2023-04-03T09:18:30;5.80;98.80
29551;DHT22;16488;52.396;10.696;2023-04-03T09:23:30;7.50;94.90
29551;DHT22;16488;52.396;10.696;2023-04-03T09:26:13;7.90;93.50
29551;DHT22;16488;52.396;10.696;2023-04-03T09:28:39;8.80;92.50
29551;DHT22;16488;52.396;10.696;2023-04-03T09:31:42;9.80;89.30
29551;DHT22;16488;52.396;10.696;2023-04-03T09:34:03;9.60;85.70
29551;DHT22;16488;52.396;10.696;2023-04-03T09:39:09;9.10;87.60
29551;DHT22;16488;52.396;10.696;2023-04-03T09:41:35;8.40;86.40
29551;DHT22;16488;52.396;10.696;2023-04-03T09:44:01;7.70;89.90
29551;DHT22;16488;52.396;10.696;2023-04-03T09:46:31;7.40;90.70
29551;DHT22;16488;52.396;10.696;2023-04-03T09:49:08;7.10;91.00
29551;DHT22;16488;52.396;10.696;2023-04-03T09:51:36;7.10;90.90
29551;DHT22;16488;52.396;10.696;2023-04-03T09:54:04;6.70;91.00
29551;DHT22;16488;52.396;10.696;2023-04-03T09:56:50;6.60;90.30
29551;DHT22;16488;52.396;10.696;2023-04-03T09:59:17;6.40;90.10
29551;DHT22;16488;52.396;10.696;2023-04-03T10:01:43;6.80;90.50
29551;DHT22;16488;52.396;10.696;2023-04-03T10:04:22;7.10;89.10
29551;DHT22;16488;52.396;10.696;2023-04-03T10:06:49;6.90;88.10
29551;DHT22;16488;52.396;10.696;2023-04-03T10:12:00;6.30;88.10
29551;DHT22;16488;52.396;10.696;2023-04-03T10:14:26;6.30;90.20
29551;DHT22;16488;52.396;10.696;2023-04-03T10:16:58;6.50;88.90
29551;DHT22;16488;52.396;10.696;2023-04-03T10:27:51;5.80;88.20
29551;DHT22;16488;52.396;10.696;2023-04-03T10:37:38;6.10;90.10
29551;DHT22;16488;52.396;10.696;2023-04-03T10:42:50;7.00;88.10
29551;DHT22;16488;52.396;10.696;2023-04-03T10:48:11;7.50;84.80
29551;DHT22;16488;52.396;10.696;2023-04-03T10:58:03;7.50;79.70
29551;DHT22;16488;52.396;10.696;2023-04-03T11:00:50;7.10;81.10
29551;DHT22;16488;52.396;10.696;2023-04-03T11:03:24;7.00;82.20
29551;DHT22;16488;52.396;10.696;2023-04-03T11:05:52;6.90;83.20
29551;DHT22;16488;52.396;10.696;2023-04-03T11:10:50;8.20;78.70
29551;DHT22;16488;52.396;10.696;2023-04-03T11:13:20;7.80;80.70
29551;DHT22;16488;52.396;10.696;2023-04-03T11:15:48;7.70;82.10
29551;DHT22;16488;52.396;10.696;2023-04-03T11:18:18;7.40;83.70
29551;DHT22;16488;52.396;10.696;2023-04-03T11:20:47;7.30;84.90
29551;DHT22;16488;52.396;10.696;2023-04-03T11:23:21;7.10;85.40
29551;DHT22;16488;52.396;10.696;2023-04-03T11:25:49;6.80;87.00
29551;DHT22;16488;52.396;10.696;2023-04-03T11:28:15;6.70;88.80
29551;DHT22;16488;52.396;10.696;2023-04-03T11:35:42;6.50;86.10
29551;DHT22;16488;52.396;10.696;2023-04-03T11:38:10;6.40;86.50
29551;DHT22;16488;52.396;10.696;2023-04-03T11:40:40;6.90;87.00
29551;DHT22;16488;52.396;10.696;2023-04-03T11:43:19;7.80;82.40
29551;DHT22;16488;52.396;10.696;2023-04-03T11:45:49;7.90;77.90
29551;DHT22;16488;52.396;10.696;2023-04-03T11:50:47;7.50;80.00
29551;DHT22;16488;52.396;10.696;2023-04-03T11:55:43;7.50;83.80
29551;DHT22;16488;52.396;10.696;2023-04-03T12:00:58;9.00;80.20
29551;DHT22;16488;52.396;10.696;2023-04-03T12:13:40;12.10;64.90
29551;DHT22;16488;52.396;10.696;2023-04-03T12:16:06;12.30;63.30
29551;DHT22;16488;52.396;10.696;2023-04-03T12:21:14;11.70;61.90
29551;DHT22;16488;52.396;10.696;2023-04-03T12:28:56;10.90;66.30
29551;DHT22;16488;52.396;10.696;2023-04-03T12:31:22;11.10;62.40
29551;DHT22;16488;52.396;10.696;2023-04-03T12:39:23;11.80;59.50
29551;DHT22;16488;52.396;10.696;2023-04-03T12:46:48;11.90;59.50
29551;DHT22;16488;52.396;10.696;2023-04-03T12:52:00;10.60;63.90
29551;DHT22;16488;52.396;10.696;2023-04-03T12:54:37;9.40;65.10
29551;DHT22;16488;52.396;10.696;2023-04-03T12:59:48;8.20;69.90
29551;DHT22;16488;52.396;10.696;2023-04-03T13:02:25;8.50;72.00
29551;DHT22;16488;52.396;10.696;2023-04-03T13:04:51;9.50;67.50
29551;DHT22;16488;52.396;10.696;2023-04-03T13:07:18;9.90;63.60
29551;DHT22;16488;52.396;10.696;2023-04-03T13:09:47;10.20;63.10
29551;DHT22;16488;52.396;10.696;2023-04-03T13:12:20;10.60;61.50
29551;DHT22;16488;52.396;10.696;2023-04-03T13:14:52;9.90;62.10
29551;DHT22;16488;52.396;10.696;2023-04-03T13:17:18;9.50;64.20
29551;DHT22;16488;52.396;10.696;2023-04-03T13:19:44;9.30;65.90
29551;DHT22;16488;52.396;10.696;2023-04-03T13:24:46;8.90;67.90
29551;DHT22;16488;52.396;10.696;2023-04-03T13:27:12;8.70;68.00
29551;DHT22;16488;52.396;10.696;2023-04-03T13:29:38;8.20;68.80
29551;DHT22;16488;52.396;10.696;2023-04-03T13:32:04;8.00;69.60
29551;DHT22;16488;52.396;10.696;2023-04-03T13:34:36;7.80;69.60
29551;DHT22;16488;52.396;10.696;2023-04-03T13:37:02;8.20;70.20
29551;DHT22;16488;52.396;10.696;2023-04-03T13:39:33;8.80;65.90
29551;DHT22;16488;52.396;10.696;2023-04-03T13:42:00;9.40;67.50
29551;DHT22;16488;52.396;10.696;2023-04-03T13:46:53;10.70;62.90
29551;DHT22;16488;52.396;10.696;2023-04-03T13:49:33;11.60;59.80
29551;DHT22;16488;52.396;10.696;2023-04-03T13:51:59;11.70;60.80
29551;DHT22;16488;52.396;10.696;2023-04-03T13:54:32;11.00;61.10
29551;DHT22;16488;52.396;10.696;2023-04-03T13:56:59;10.60;64.40
29551;DHT22;16488;52.396;10.696;2023-04-03T13:59:33;10.30;65.00
29551;DHT22;16488;52.396;10.696;2023-04-03T14:04:29;9.60;66.00
29551;DHT22;16488;52.396;10.696;2023-04-03T14:06:55;10.90;62.40
29551;DHT22;16488;52.396;10.696;2023-04-03T14:09:21;12.40;58.10
29551;DHT22;16488;52.396;10.696;2023-04-03T14:11:48;12.80;57.10
29551;DHT22;16488;52.396;10.696;2023-04-03T14:14:21;13.00;55.70
29551;DHT22;16488;52.396;10.696;2023-04-03T14:16:50;13.10;55.60
29551;DHT22;16488;52.396;10.696;2023-04-03T14:19:18;11.70;56.80
29551;DHT22;16488;52.396;10.696;2023-04-03T14:21:44;10.70;59.30
29551;DHT22;16488;52.396;10.696;2023-04-03T14:24:10;9.80;62.60
29551;DHT22;16488;52.396;10.696;2023-04-03T14:26:36;9.20;64.90
29551;DHT22;16488;52.396;10.696;2023-04-03T14:29:02;8.70;66.90
29551;DHT22;16488;52.396;10.696;2023-04-03T14:31:28;8.50;69.30
29551;DHT22;16488;52.396;10.696;2023-04-03T14:33:53;8.50;69.40
29551;DHT22;16488;52.396;10.696;2023-04-03T14:36:23;8.70;70.00
29551;DHT22;16488;52.396;10.696;2023-04-03T14:38:50;9.30;67.70
29551;DHT22;16488;52.396;10.696;2023-04-03T14:41:17;9.20;65.40
29551;DHT22;16488;52.396;10.696;2023-04-03T14:43:43;9.10;67.00
29551;DHT22;16488;52.396;10.696;2023-04-03T14:46:11;9.60;65.00
29551;DHT22;16488;52.396;10.696;2023-04-03T14:48:37;10.80;64.50
29551;DHT22;16488;52.396;10.696;2023-04-03T14:51:03;12.00;59.40
29551;DHT22;16488;52.396;10.696;2023-04-03T14:53:28;12.90;57.10
29551;DHT22;16488;52.396;10.696;2023-04-03T14:55:54;11.90;56.80
29551;DHT22;16488;52.396;10.696;2023-04-03T14:58:20;10.90;58.30
29551;DHT22;16488;52.396;10.696;2023-04-03T15:00:46;9.80;60.80
29551;DHT22;16488;52.396;10.696;2023-04-03T15:03:15;9.30;63.10
29551;DHT22;16488;52.396;10.696;2023-04-03T15:05:41;8.80;65.10
29551;DHT22;16488;52.396;10.696;2023-04-03T15:08:10;8.60;70.00
29551;DHT22;16488;52.396;10.696;2023-04-03T15:10:38;8.90;69.70
29551;DHT22;16488;52.396;10.696;2023-04-03T15:13:03;9.80;68.70
29551;DHT22;16488;52.396;10.696;2023-04-03T15:15:29;9.60;63.80
29551;DHT22;16488;52.396;10.696;2023-04-03T15:17:56;8.90;65.50
29551;DHT22;16488;52.396;10.696;2023-04-03T15:20:25;8.40;66.00
29551;DHT22;16488;52.396;10.696;2023-04-03T15:22:51;8.30;67.20
29551;DHT22;16488;52.396;10.696;2023-04-03T15:25:17;9.50;64.20
29551;DHT22;16488;52.396;10.696;2023-04-03T15:27:43;11.00;60.90
29551;DHT22;16488;52.396;10.696;2023-04-03T15:30:13;11.70;57.00
29551;DHT22;16488;52.396;10.696;2023-04-03T15:32:39;12.40;56.20
29551;DHT22;16488;52.396;10.696;2023-04-03T15:35:04;13.20;53.90
29551;DHT22;16488;52.396;10.696;2023-04-03T15:37:30;13.50;52.30
29551;DHT22;16488;52.396;10.696;2023-04-03T15:39:56;13.20;51.10
29551;DHT22;16488;52.396;10.696;2023-04-03T15:42:21;12.60;53.80
29551;DHT22;16488;52.396;10.696;2023-04-03T15:44:47;11.20;55.70
29551;DHT22;16488;52.396;10.696;2023-04-03T15:47:12;9.90;59.10
29551;DHT22;16488;52.396;10.696;2023-04-03T15:49:38;9.60;60.90
29551;DHT22;16488;52.396;10.696;2023-04-03T15:52:04;9.70;61.10
29551;DHT22;16488;52.396;10.696;2023-04-03T15:54:29;9.50;64.40
29551;DHT22;16488;52.396;10.696;2023-04-03T15:56:55;9.90;62.50
29551;DHT22;16488;52.396;10.696;2023-04-03T15:59:21;10.50;61.10
29551;DHT22;16488;52.396;10.696;2023-04-03T16:01:47;10.20;59.00
29551;DHT22;16488;52.396;10.696;2023-04-03T16:04:13;9.40;60.30
29551;DHT22;16488;52.396;10.696;2023-04-03T16:06:38;8.70;63.00
29551;DHT22;16488;52.396;10.696;2023-04-03T16:09:04;8.40;65.00
29551;DHT22;16488;52.396;10.696;2023-04-03T16:11:30;8.20;66.50
29551;DHT22;16488;52.396;10.696;2023-04-03T16:13:55;9.30;65.80
29551;DHT22;16488;52.396;10.696;2023-04-03T16:16:21;10.50;60.10
29551;DHT22;16488;52.396;10.696;2023-04-03T16:18:49;10.50;59.10
29551;DHT22;16488;52.396;10.696;2023-04-03T16:21:15;10.90;59.40
29551;DHT22;16488;52.396;10.696;2023-04-03T16:23:41;11.00;58.80
29551;DHT22;16488;52.396;10.696;2023-04-03T16:26:07;10.50;59.50
29551;DHT22;16488;52.396;10.696;2023-04-03T16:28:32;10.10;59.70
29551;DHT22;16488;52.396;10.696;2023-04-03T16:30:58;10.10;59.80
29551;DHT22;16488;52.396;10.696;2023-04-03T16:33:25;10.20;59.70
29551;DHT22;16488;52.396;10.696;2023-04-03T16:35:50;10.20;58.90
29551;DHT22;16488;52.396;10.696;2023-04-03T16:38:17;10.10;60.00
29551;DHT22;16488;52.396;10.696;2023-04-03T16:40:44;10.10;60.80
29551;DHT22;16488;52.396;10.696;2023-04-03T16:43:10;10.30;60.00
29551;DHT22;16488;52.396;10.696;2023-04-03T16:45:35;9.90;58.60
29551;DHT22;16488;52.396;10.696;2023-04-03T16:48:01;9.60;60.30
29551;DHT22;16488;52.396;10.696;2023-04-03T16:50:27;9.00;61.20
29551;DHT22;16488;52.396;10.696;2023-04-03T16:52:52;8.40;64.10
29551;DHT22;16488;52.396;10.696;2023-04-03T16:55:18;8.00;65.20
29551;DHT22;16488;52.396;10.696;2023-04-03T16:57:43;7.60;66.20
29551;DHT22;16488;52.396;10.696;2023-04-03T17:00:09;7.40;67.20
29551;DHT22;16488;52.396;10.696;2023-04-03T17:02:34;7.20;67.50
29551;DHT22;16488;52.396;10.696;2023-04-03T17:05:00;7.00;68.60
29551;DHT22;16488;52.396;10.696;2023-04-03T17:07:26;6.80;68.40